Terminal Aerodrome Forecast
Issued by NWS

Home | Current Version | Previous Version | Text Only | Print | Product List | Glossary On
Versions: 1 2 3 4 5 6 7 8 9 10 11 12 13 14 15 16 17 18 19 20 21 22 23 24 25 26 27 28 29
192
FTUS44 KLZK 172358 CCA
TAFLIT
TAF COR
KLIT 172358Z 1800/1824 VRB03KT 5SM BR OVC005
      TEMPO 1800/1804 1SM -DZ BR
     FM180600 VRB03KT 1SM BR OVC004
     FM181000 VRB04KT 1/2SM FG OVC004
     FM181400 VRB05KT P6SM BKN012 OVC025
     FM181800 22005KT P6SM SCT250=

USA.gov is the U.S. government's official web portal to all federal, state and local government web resources and services.